sensor_id;sensor_type;location;lat;lon;timestamp;P1;durP1;ratioP1;P2;durP2;ratioP2
59271;SDS011;45043;51.068;7.026;2022-08-19T00:01:46;12.57;;;11.37;;
59271;SDS011;45043;51.068;7.026;2022-08-19T00:04:48;13.13;;;11.93;;
59271;SDS011;45043;51.068;7.026;2022-08-19T00:07:52;11.90;;;10.67;;
59271;SDS011;45043;51.068;7.026;2022-08-19T00:10:52;11.83;;;10.73;;
59271;SDS011;45043;51.068;7.026;2022-08-19T00:13:53;13.00;;;11.80;;
59271;SDS011;45043;51.068;7.026;2022-08-19T00:16:56;12.97;;;11.80;;
59271;SDS011;45043;51.068;7.026;2022-08-19T00:19:57;12.67;;;11.43;;
59271;SDS011;45043;51.068;7.026;2022-08-19T00:22:57;13.80;;;11.80;;
59271;SDS011;45043;51.068;7.026;2022-08-19T00:25:58;12.73;;;11.70;;
59271;SDS011;45043;51.068;7.026;2022-08-19T00:28:59;12.77;;;11.60;;
59271;SDS011;45043;51.068;7.026;2022-08-19T00:32:00;13.23;;;11.97;;
59271;SDS011;45043;51.068;7.026;2022-08-19T00:35:01;13.87;;;12.57;;
59271;SDS011;45043;51.068;7.026;2022-08-19T00:38:01;15.53;;;12.63;;
59271;SDS011;45043;51.068;7.026;2022-08-19T00:41:02;13.37;;;12.03;;
59271;SDS011;45043;51.068;7.026;2022-08-19T00:47:05;13.30;;;12.20;;
59271;SDS011;45043;51.068;7.026;2022-08-19T00:50:07;13.70;;;12.33;;
59271;SDS011;45043;51.068;7.026;2022-08-19T00:53:10;12.83;;;11.63;;
59271;SDS011;45043;51.068;7.026;2022-08-19T00:56:12;12.83;;;11.63;;
59271;SDS011;45043;51.068;7.026;2022-08-19T00:59:13;12.67;;;11.40;;
59271;SDS011;45043;51.068;7.026;2022-08-19T01:02:15;14.07;;;12.60;;
59271;SDS011;45043;51.068;7.026;2022-08-19T01:05:18;12.77;;;11.57;;
59271;SDS011;45043;51.068;7.026;2022-08-19T01:08:22;13.27;;;12.00;;
59271;SDS011;45043;51.068;7.026;2022-08-19T01:11:23;12.83;;;11.73;;
59271;SDS011;45043;51.068;7.026;2022-08-19T01:14:23;14.07;;;11.90;;
59271;SDS011;45043;51.068;7.026;2022-08-19T01:17:25;13.07;;;11.97;;
59271;SDS011;45043;51.068;7.026;2022-08-19T01:20:29;12.63;;;11.53;;
59271;SDS011;45043;51.068;7.026;2022-08-19T01:23:29;14.13;;;12.80;;
59271;SDS011;45043;51.068;7.026;2022-08-19T01:26:46;13.97;;;12.37;;
59271;SDS011;45043;51.068;7.026;2022-08-19T01:29:47;13.53;;;12.33;;
59271;SDS011;45043;51.068;7.026;2022-08-19T01:32:48;13.90;;;12.70;;
59271;SDS011;45043;51.068;7.026;2022-08-19T01:35:50;13.63;;;12.30;;
59271;SDS011;45043;51.068;7.026;2022-08-19T01:38:52;14.20;;;12.70;;
59271;SDS011;45043;51.068;7.026;2022-08-19T01:41:54;14.73;;;13.23;;
59271;SDS011;45043;51.068;7.026;2022-08-19T01:44:55;14.30;;;13.00;;
59271;SDS011;45043;51.068;7.026;2022-08-19T01:47:56;15.50;;;14.03;;
59271;SDS011;45043;51.068;7.026;2022-08-19T01:50:57;14.63;;;13.17;;
59271;SDS011;45043;51.068;7.026;2022-08-19T01:53:58;16.17;;;14.43;;
59271;SDS011;45043;51.068;7.026;2022-08-19T01:57:03;15.00;;;13.80;;
59271;SDS011;45043;51.068;7.026;2022-08-19T02:00:08;15.60;;;13.67;;
59271;SDS011;45043;51.068;7.026;2022-08-19T02:03:13;14.63;;;13.30;;
59271;SDS011;45043;51.068;7.026;2022-08-19T02:06:14;15.23;;;13.83;;
59271;SDS011;45043;51.068;7.026;2022-08-19T02:09:17;15.27;;;13.87;;
59271;SDS011;45043;51.068;7.026;2022-08-19T02:12:20;15.73;;;13.40;;
59271;SDS011;45043;51.068;7.026;2022-08-19T02:15:21;13.67;;;12.37;;
59271;SDS011;45043;51.068;7.026;2022-08-19T02:18:21;14.67;;;13.20;;
59271;SDS011;45043;51.068;7.026;2022-08-19T02:21:22;14.90;;;13.57;;
59271;SDS011;45043;51.068;7.026;2022-08-19T02:24:23;15.77;;;14.37;;
59271;SDS011;45043;51.068;7.026;2022-08-19T02:27:24;15.40;;;14.00;;
59271;SDS011;45043;51.068;7.026;2022-08-19T02:30:26;14.70;;;13.27;;
59271;SDS011;45043;51.068;7.026;2022-08-19T02:33:26;15.43;;;14.03;;
59271;SDS011;45043;51.068;7.026;2022-08-19T02:36:27;14.40;;;13.10;;
59271;SDS011;45043;51.068;7.026;2022-08-19T02:39:27;15.73;;;14.33;;
59271;SDS011;45043;51.068;7.026;2022-08-19T02:42:28;16.30;;;14.60;;
59271;SDS011;45043;51.068;7.026;2022-08-19T02:45:32;14.73;;;13.40;;
59271;SDS011;45043;51.068;7.026;2022-08-19T02:48:34;16.17;;;14.77;;
59271;SDS011;45043;51.068;7.026;2022-08-19T02:51:36;15.33;;;13.93;;
59271;SDS011;45043;51.068;7.026;2022-08-19T02:54:39;15.83;;;14.23;;
59271;SDS011;45043;51.068;7.026;2022-08-19T02:57:40;16.53;;;14.93;;
59271;SDS011;45043;51.068;7.026;2022-08-19T03:00:45;16.77;;;15.17;;
59271;SDS011;45043;51.068;7.026;2022-08-19T03:03:51;17.40;;;15.57;;
59271;SDS011;45043;51.068;7.026;2022-08-19T03:06:52;16.33;;;14.83;;
59271;SDS011;45043;51.068;7.026;2022-08-19T03:09:52;18.33;;;15.83;;
59271;SDS011;45043;51.068;7.026;2022-08-19T03:12:53;18.40;;;16.70;;
59271;SDS011;45043;51.068;7.026;2022-08-19T03:15:53;18.07;;;16.47;;
59271;SDS011;45043;51.068;7.026;2022-08-19T03:18:55;19.27;;;17.40;;
59271;SDS011;45043;51.068;7.026;2022-08-19T03:21:59;20.07;;;18.17;;
59271;SDS011;45043;51.068;7.026;2022-08-19T03:25:00;21.23;;;19.07;;
59271;SDS011;45043;51.068;7.026;2022-08-19T03:28:01;20.20;;;18.20;;
59271;SDS011;45043;51.068;7.026;2022-08-19T03:31:06;20.17;;;18.43;;
59271;SDS011;45043;51.068;7.026;2022-08-19T03:34:15;20.30;;;18.50;;
59271;SDS011;45043;51.068;7.026;2022-08-19T03:37:19;20.00;;;18.20;;
59271;SDS011;45043;51.068;7.026;2022-08-19T03:40:20;21.17;;;19.23;;
59271;SDS011;45043;51.068;7.026;2022-08-19T03:43:22;21.53;;;19.50;;
59271;SDS011;45043;51.068;7.026;2022-08-19T03:46:25;20.47;;;18.57;;
59271;SDS011;45043;51.068;7.026;2022-08-19T03:49:29;19.23;;;17.53;;
59271;SDS011;45043;51.068;7.026;2022-08-19T03:52:39;20.77;;;18.87;;
59271;SDS011;45043;51.068;7.026;2022-08-19T03:55:40;21.43;;;19.33;;
59271;SDS011;45043;51.068;7.026;2022-08-19T03:58:41;20.33;;;18.30;;
59271;SDS011;45043;51.068;7.026;2022-08-19T04:01:42;19.47;;;17.40;;
59271;SDS011;45043;51.068;7.026;2022-08-19T04:04:43;19.57;;;17.77;;
59271;SDS011;45043;51.068;7.026;2022-08-19T04:07:44;19.40;;;17.53;;
59271;SDS011;45043;51.068;7.026;2022-08-19T04:10:44;19.00;;;17.30;;
59271;SDS011;45043;51.068;7.026;2022-08-19T04:13:45;17.70;;;16.20;;
59271;SDS011;45043;51.068;7.026;2022-08-19T04:16:46;16.63;;;15.03;;
59271;SDS011;45043;51.068;7.026;2022-08-19T04:19:47;17.40;;;15.67;;
59271;SDS011;45043;51.068;7.026;2022-08-19T04:22:48;17.83;;;15.67;;
59271;SDS011;45043;51.068;7.026;2022-08-19T04:25:48;18.83;;;16.93;;
59271;SDS011;45043;51.068;7.026;2022-08-19T04:28:49;20.10;;;18.20;;
59271;SDS011;45043;51.068;7.026;2022-08-19T04:31:54;20.13;;;18.33;;
59271;SDS011;45043;51.068;7.026;2022-08-19T04:34:56;22.37;;;20.03;;
59271;SDS011;45043;51.068;7.026;2022-08-19T04:37:58;20.10;;;18.00;;
59271;SDS011;45043;51.068;7.026;2022-08-19T04:40:59;27.63;;;25.03;;
59271;SDS011;45043;51.068;7.026;2022-08-19T04:44:18;29.43;;;24.87;;
59271;SDS011;45043;51.068;7.026;2022-08-19T04:47:19;27.27;;;24.47;;
59271;SDS011;45043;51.068;7.026;2022-08-19T04:50:20;31.37;;;28.27;;
59271;SDS011;45043;51.068;7.026;2022-08-19T04:53:26;27.93;;;25.03;;
59271;SDS011;45043;51.068;7.026;2022-08-19T04:56:34;24.43;;;22.03;;
59271;SDS011;45043;51.068;7.026;2022-08-19T04:59:35;23.30;;;21.00;;
59271;SDS011;45043;51.068;7.026;2022-08-19T05:02:37;22.63;;;19.93;;
59271;SDS011;45043;51.068;7.026;2022-08-19T05:05:39;20.17;;;18.27;;
59271;SDS011;45043;51.068;7.026;2022-08-19T05:08:42;17.90;;;16.00;;
59271;SDS011;45043;51.068;7.026;2022-08-19T05:11:46;22.23;;;19.90;;
59271;SDS011;45043;51.068;7.026;2022-08-19T05:14:47;19.50;;;17.57;;
59271;SDS011;45043;51.068;7.026;2022-08-19T05:17:49;20.30;;;18.23;;
59271;SDS011;45043;51.068;7.026;2022-08-19T05:21:12;22.30;;;20.17;;
59271;SDS011;45043;51.068;7.026;2022-08-19T05:24:34;20.43;;;18.43;;
59271;SDS011;45043;51.068;7.026;2022-08-19T05:27:36;19.23;;;17.33;;
59271;SDS011;45043;51.068;7.026;2022-08-19T05:30:37;15.53;;;14.13;;
59271;SDS011;45043;51.068;7.026;2022-08-19T05:33:37;18.63;;;16.73;;
59271;SDS011;45043;51.068;7.026;2022-08-19T05:36:40;14.73;;;13.43;;
59271;SDS011;45043;51.068;7.026;2022-08-19T05:39:45;17.17;;;15.47;;
59271;SDS011;45043;51.068;7.026;2022-08-19T05:42:45;19.17;;;17.43;;
59271;SDS011;45043;51.068;7.026;2022-08-19T05:45:46;24.43;;;21.93;;
59271;SDS011;45043;51.068;7.026;2022-08-19T05:48:47;19.60;;;17.70;;
59271;SDS011;45043;51.068;7.026;2022-08-19T05:51:48;20.87;;;18.87;;
59271;SDS011;45043;51.068;7.026;2022-08-19T05:54:49;19.90;;;17.90;;
59271;SDS011;45043;51.068;7.026;2022-08-19T05:57:51;18.80;;;17.07;;
59271;SDS011;45043;51.068;7.026;2022-08-19T06:00:51;21.90;;;18.87;;
59271;SDS011;45043;51.068;7.026;2022-08-19T06:03:54;20.53;;;18.23;;
59271;SDS011;45043;51.068;7.026;2022-08-19T06:06:55;22.27;;;20.00;;
59271;SDS011;45043;51.068;7.026;2022-08-19T06:09:56;30.13;;;27.10;;
59271;SDS011;45043;51.068;7.026;2022-08-19T06:12:56;26.70;;;23.60;;
59271;SDS011;45043;51.068;7.026;2022-08-19T06:15:57;29.27;;;26.17;;
59271;SDS011;45043;51.068;7.026;2022-08-19T06:18:59;33.73;;;30.33;;
59271;SDS011;45043;51.068;7.026;2022-08-19T06:22:00;38.60;;;34.73;;
59271;SDS011;45043;51.068;7.026;2022-08-19T06:25:04;39.07;;;34.97;;
59271;SDS011;45043;51.068;7.026;2022-08-19T06:28:05;41.33;;;37.00;;
59271;SDS011;45043;51.068;7.026;2022-08-19T06:31:06;41.57;;;37.17;;
59271;SDS011;45043;51.068;7.026;2022-08-19T06:34:07;41.27;;;37.03;;
59271;SDS011;45043;51.068;7.026;2022-08-19T06:37:08;43.83;;;39.13;;
59271;SDS011;45043;51.068;7.026;2022-08-19T06:40:08;40.63;;;36.50;;
59271;SDS011;45043;51.068;7.026;2022-08-19T06:43:11;41.70;;;37.30;;
59271;SDS011;45043;51.068;7.026;2022-08-19T06:46:12;46.13;;;41.23;;
59271;SDS011;45043;51.068;7.026;2022-08-19T06:49:14;44.13;;;39.43;;
59271;SDS011;45043;51.068;7.026;2022-08-19T06:52:15;46.50;;;41.63;;
59271;SDS011;45043;51.068;7.026;2022-08-19T06:55:16;45.53;;;40.83;;
59271;SDS011;45043;51.068;7.026;2022-08-19T06:58:17;49.33;;;44.03;;
59271;SDS011;45043;51.068;7.026;2022-08-19T07:01:18;42.37;;;37.93;;
59271;SDS011;45043;51.068;7.026;2022-08-19T07:04:21;45.50;;;40.53;;
59271;SDS011;45043;51.068;7.026;2022-08-19T07:07:26;47.73;;;42.80;;
59271;SDS011;45043;51.068;7.026;2022-08-19T07:10:26;48.10;;;42.93;;
59271;SDS011;45043;51.068;7.026;2022-08-19T07:13:27;47.70;;;42.77;;
59271;SDS011;45043;51.068;7.026;2022-08-19T07:16:28;43.50;;;38.80;;
59271;SDS011;45043;51.068;7.026;2022-08-19T07:19:29;40.97;;;36.63;;
59271;SDS011;45043;51.068;7.026;2022-08-19T07:22:29;44.33;;;39.63;;
59271;SDS011;45043;51.068;7.026;2022-08-19T07:25:31;40.70;;;36.40;;
59271;SDS011;45043;51.068;7.026;2022-08-19T07:28:32;44.10;;;38.90;;
59271;SDS011;45043;51.068;7.026;2022-08-19T07:31:32;41.80;;;37.27;;
59271;SDS011;45043;51.068;7.026;2022-08-19T07:34:37;44.73;;;39.87;;
59271;SDS011;45043;51.068;7.026;2022-08-19T07:37:37;43.97;;;39.57;;
59271;SDS011;45043;51.068;7.026;2022-08-19T07:40:39;41.97;;;36.47;;
59271;SDS011;45043;51.068;7.026;2022-08-19T07:43:42;40.63;;;36.33;;
59271;SDS011;45043;51.068;7.026;2022-08-19T07:46:44;39.93;;;35.90;;
59271;SDS011;45043;51.068;7.026;2022-08-19T07:49:48;37.93;;;33.70;;
59271;SDS011;45043;51.068;7.026;2022-08-19T07:52:49;40.33;;;36.27;;
59271;SDS011;45043;51.068;7.026;2022-08-19T07:55:50;37.73;;;32.90;;
59271;SDS011;45043;51.068;7.026;2022-08-19T07:58:51;39.67;;;34.20;;
59271;SDS011;45043;51.068;7.026;2022-08-19T08:01:52;35.47;;;31.67;;
59271;SDS011;45043;51.068;7.026;2022-08-19T08:04:53;35.63;;;30.70;;
59271;SDS011;45043;51.068;7.026;2022-08-19T08:08:13;36.00;;;32.13;;
59271;SDS011;45043;51.068;7.026;2022-08-19T08:11:31;33.27;;;29.73;;
59271;SDS011;45043;51.068;7.026;2022-08-19T08:14:33;35.77;;;31.83;;
59271;SDS011;45043;51.068;7.026;2022-08-19T08:17:37;35.60;;;31.80;;
59271;SDS011;45043;51.068;7.026;2022-08-19T08:20:38;34.37;;;30.30;;
59271;SDS011;45043;51.068;7.026;2022-08-19T08:23:39;33.13;;;29.73;;
59271;SDS011;45043;51.068;7.026;2022-08-19T08:26:40;36.07;;;32.13;;
59271;SDS011;45043;51.068;7.026;2022-08-19T08:29:42;38.37;;;34.03;;
59271;SDS011;45043;51.068;7.026;2022-08-19T08:32:45;37.47;;;33.23;;
59271;SDS011;45043;51.068;7.026;2022-08-19T08:35:45;34.83;;;31.20;;
59271;SDS011;45043;51.068;7.026;2022-08-19T08:38:46;35.37;;;31.87;;
59271;SDS011;45043;51.068;7.026;2022-08-19T08:42:08;30.93;;;27.83;;
59271;SDS011;45043;51.068;7.026;2022-08-19T08:45:17;32.13;;;28.90;;
59271;SDS011;45043;51.068;7.026;2022-08-19T08:48:27;34.57;;;30.30;;
59271;SDS011;45043;51.068;7.026;2022-08-19T08:51:36;35.83;;;32.10;;
59271;SDS011;45043;51.068;7.026;2022-08-19T08:54:48;36.20;;;32.43;;
59271;SDS011;45043;51.068;7.026;2022-08-19T08:57:56;38.60;;;34.40;;
59271;SDS011;45043;51.068;7.026;2022-08-19T09:01:01;35.50;;;30.93;;
59271;SDS011;45043;51.068;7.026;2022-08-19T09:04:05;40.80;;;34.63;;
59271;SDS011;45043;51.068;7.026;2022-08-19T09:10:22;39.90;;;35.90;;
59271;SDS011;45043;51.068;7.026;2022-08-19T09:17:11;41.47;;;35.97;;
59271;SDS011;45043;51.068;7.026;2022-08-19T09:20:18;41.60;;;34.47;;
59271;SDS011;45043;51.068;7.026;2022-08-19T09:23:20;38.50;;;33.93;;
59271;SDS011;45043;51.068;7.026;2022-08-19T09:26:24;39.87;;;35.77;;
59271;SDS011;45043;51.068;7.026;2022-08-19T09:29:25;43.60;;;38.80;;
59271;SDS011;45043;51.068;7.026;2022-08-19T09:32:25;37.80;;;33.53;;
59271;SDS011;45043;51.068;7.026;2022-08-19T09:35:28;46.50;;;39.50;;
59271;SDS011;45043;51.068;7.026;2022-08-19T09:38:29;39.27;;;35.17;;
59271;SDS011;45043;51.068;7.026;2022-08-19T09:41:32;40.30;;;35.93;;
59271;SDS011;45043;51.068;7.026;2022-08-19T09:44:33;42.03;;;36.63;;
59271;SDS011;45043;51.068;7.026;2022-08-19T09:47:33;39.70;;;34.30;;
59271;SDS011;45043;51.068;7.026;2022-08-19T09:50:37;40.03;;;35.63;;
59271;SDS011;45043;51.068;7.026;2022-08-19T09:53:38;34.97;;;31.20;;
59271;SDS011;45043;51.068;7.026;2022-08-19T09:56:39;33.53;;;28.90;;
59271;SDS011;45043;51.068;7.026;2022-08-19T09:59:39;24.23;;;21.87;;
59271;SDS011;45043;51.068;7.026;2022-08-19T10:02:40;26.60;;;23.73;;
59271;SDS011;45043;51.068;7.026;2022-08-19T10:05:40;26.20;;;23.07;;
59271;SDS011;45043;51.068;7.026;2022-08-19T10:08:50;25.63;;;23.10;;
59271;SDS011;45043;51.068;7.026;2022-08-19T10:11:51;21.27;;;19.03;;
59271;SDS011;45043;51.068;7.026;2022-08-19T10:14:52;24.97;;;22.47;;
59271;SDS011;45043;51.068;7.026;2022-08-19T10:17:54;33.90;;;28.93;;
59271;SDS011;45043;51.068;7.026;2022-08-19T10:21:03;27.03;;;23.77;;
59271;SDS011;45043;51.068;7.026;2022-08-19T10:24:08;23.83;;;19.50;;
59271;SDS011;45043;51.068;7.026;2022-08-19T10:27:09;22.63;;;20.23;;
59271;SDS011;45043;51.068;7.026;2022-08-19T10:30:09;17.57;;;15.97;;
59271;SDS011;45043;51.068;7.026;2022-08-19T10:33:10;20.87;;;18.63;;
59271;SDS011;45043;51.068;7.026;2022-08-19T10:36:15;18.97;;;17.07;;
59271;SDS011;45043;51.068;7.026;2022-08-19T10:39:23;19.67;;;17.57;;
59271;SDS011;45043;51.068;7.026;2022-08-19T10:42:23;21.13;;;19.03;;
59271;SDS011;45043;51.068;7.026;2022-08-19T10:45:24;22.00;;;19.80;;
59271;SDS011;45043;51.068;7.026;2022-08-19T10:48:27;22.63;;;20.33;;
59271;SDS011;45043;51.068;7.026;2022-08-19T10:51:27;19.67;;;17.77;;
59271;SDS011;45043;51.068;7.026;2022-08-19T10:54:49;17.97;;;16.23;;
59271;SDS011;45043;51.068;7.026;2022-08-19T10:58:12;17.03;;;15.23;;
59271;SDS011;45043;51.068;7.026;2022-08-19T11:01:14;17.27;;;15.57;;
59271;SDS011;45043;51.068;7.026;2022-08-19T11:04:14;19.37;;;17.50;;
59271;SDS011;45043;51.068;7.026;2022-08-19T11:07:17;19.40;;;17.50;;
59271;SDS011;45043;51.068;7.026;2022-08-19T11:10:18;16.27;;;14.53;;
59271;SDS011;45043;51.068;7.026;2022-08-19T11:13:19;17.97;;;16.27;;
59271;SDS011;45043;51.068;7.026;2022-08-19T11:16:20;15.23;;;13.93;;
59271;SDS011;45043;51.068;7.026;2022-08-19T11:19:23;16.47;;;14.87;;
59271;SDS011;45043;51.068;7.026;2022-08-19T11:22:24;17.57;;;15.87;;
59271;SDS011;45043;51.068;7.026;2022-08-19T11:25:24;17.43;;;15.73;;
59271;SDS011;45043;51.068;7.026;2022-08-19T11:28:25;17.53;;;15.93;;
59271;SDS011;45043;51.068;7.026;2022-08-19T11:31:27;18.00;;;16.23;;
59271;SDS011;45043;51.068;7.026;2022-08-19T11:34:30;19.10;;;17.33;;
59271;SDS011;45043;51.068;7.026;2022-08-19T11:37:31;18.47;;;16.67;;
59271;SDS011;45043;51.068;7.026;2022-08-19T11:40:31;17.70;;;15.57;;
59271;SDS011;45043;51.068;7.026;2022-08-19T11:43:34;17.20;;;15.50;;
59271;SDS011;45043;51.068;7.026;2022-08-19T11:46:35;16.33;;;14.43;;
59271;SDS011;45043;51.068;7.026;2022-08-19T11:49:37;15.10;;;13.67;;
59271;SDS011;45043;51.068;7.026;2022-08-19T11:52:38;17.03;;;15.33;;
59271;SDS011;45043;51.068;7.026;2022-08-19T11:55:38;15.63;;;14.07;;
59271;SDS011;45043;51.068;7.026;2022-08-19T11:58:40;14.53;;;12.97;;
59271;SDS011;45043;51.068;7.026;2022-08-19T12:01:43;13.80;;;12.50;;
59271;SDS011;45043;51.068;7.026;2022-08-19T12:04:44;12.70;;;11.43;;
59271;SDS011;45043;51.068;7.026;2022-08-19T12:07:45;13.53;;;12.17;;
59271;SDS011;45043;51.068;7.026;2022-08-19T12:10:45;13.70;;;12.50;;
59271;SDS011;45043;51.068;7.026;2022-08-19T12:13:46;11.13;;;10.13;;
59271;SDS011;45043;51.068;7.026;2022-08-19T12:16:47;11.40;;;10.40;;
59271;SDS011;45043;51.068;7.026;2022-08-19T12:19:48;12.30;;;11.03;;
59271;SDS011;45043;51.068;7.026;2022-08-19T12:22:48;11.13;;;9.70;;
59271;SDS011;45043;51.068;7.026;2022-08-19T12:25:50;10.83;;;9.80;;
59271;SDS011;45043;51.068;7.026;2022-08-19T12:28:51;10.17;;;8.97;;
59271;SDS011;45043;51.068;7.026;2022-08-19T12:31:52;10.40;;;9.40;;
59271;SDS011;45043;51.068;7.026;2022-08-19T12:34:53;9.70;;;8.87;;
59271;SDS011;45043;51.068;7.026;2022-08-19T12:37:54;9.77;;;8.77;;
59271;SDS011;45043;51.068;7.026;2022-08-19T12:40:55;11.20;;;8.93;;
59271;SDS011;45043;51.068;7.026;2022-08-19T12:43:56;8.53;;;7.57;;
59271;SDS011;45043;51.068;7.026;2022-08-19T12:46:56;8.50;;;7.70;;
59271;SDS011;45043;51.068;7.026;2022-08-19T12:49:57;8.93;;;8.13;;
59271;SDS011;45043;51.068;7.026;2022-08-19T12:52:57;9.17;;;8.23;;
59271;SDS011;45043;51.068;7.026;2022-08-19T12:55:58;10.57;;;7.90;;
59271;SDS011;45043;51.068;7.026;2022-08-19T12:59:03;13.20;;;10.93;;
59271;SDS011;45043;51.068;7.026;2022-08-19T13:02:05;9.65;;;8.65;;
59271;SDS011;45043;51.068;7.026;2022-08-19T13:05:07;10.05;;;8.63;;
59271;SDS011;45043;51.068;7.026;2022-08-19T13:08:09;9.30;;;8.40;;
59271;SDS011;45043;51.068;7.026;2022-08-19T13:11:12;9.47;;;8.57;;
59271;SDS011;45043;51.068;7.026;2022-08-19T13:14:17;9.17;;;8.33;;
59271;SDS011;45043;51.068;7.026;2022-08-19T13:17:19;8.77;;;7.83;;
59271;SDS011;45043;51.068;7.026;2022-08-19T13:20:20;7.97;;;7.27;;
59271;SDS011;45043;51.068;7.026;2022-08-19T13:23:22;9.03;;;8.23;;
59271;SDS011;45043;51.068;7.026;2022-08-19T13:26:22;10.57;;;8.63;;
59271;SDS011;45043;51.068;7.026;2022-08-19T13:29:22;11.15;;;8.18;;
59271;SDS011;45043;51.068;7.026;2022-08-19T13:32:42;7.97;;;7.28;;
59271;SDS011;45043;51.068;7.026;2022-08-19T13:36:01;9.73;;;7.85;;
59271;SDS011;45043;51.068;7.026;2022-08-19T13:39:01;10.70;;;8.30;;
59271;SDS011;45043;51.068;7.026;2022-08-19T13:42:02;8.07;;;7.38;;
59271;SDS011;45043;51.068;7.026;2022-08-19T13:45:04;8.50;;;7.25;;
59271;SDS011;45043;51.068;7.026;2022-08-19T13:48:07;7.30;;;6.60;;
59271;SDS011;45043;51.068;7.026;2022-08-19T13:51:08;10.43;;;7.22;;
59271;SDS011;45043;51.068;7.026;2022-08-19T13:54:10;7.18;;;6.47;;
59271;SDS011;45043;51.068;7.026;2022-08-19T13:57:12;7.93;;;7.00;;
59271;SDS011;45043;51.068;7.026;2022-08-19T14:00:15;10.88;;;7.35;;
59271;SDS011;45043;51.068;7.026;2022-08-19T14:03:18;7.97;;;7.13;;
59271;SDS011;45043;51.068;7.026;2022-08-19T14:06:19;9.03;;;6.87;;
59271;SDS011;45043;51.068;7.026;2022-08-19T14:09:21;6.63;;;5.95;;
59271;SDS011;45043;51.068;7.026;2022-08-19T14:12:22;6.27;;;5.77;;
59271;SDS011;45043;51.068;7.026;2022-08-19T14:15:22;5.88;;;5.38;;
59271;SDS011;45043;51.068;7.026;2022-08-19T14:18:23;6.70;;;5.43;;
59271;SDS011;45043;51.068;7.026;2022-08-19T14:21:25;5.45;;;4.85;;
59271;SDS011;45043;51.068;7.026;2022-08-19T14:24:25;6.67;;;5.53;;
59271;SDS011;45043;51.068;7.026;2022-08-19T14:27:27;5.90;;;5.40;;
59271;SDS011;45043;51.068;7.026;2022-08-19T14:30:28;6.80;;;6.20;;
59271;SDS011;45043;51.068;7.026;2022-08-19T14:33:34;8.30;;;6.43;;
59271;SDS011;45043;51.068;7.026;2022-08-19T14:36:37;8.50;;;6.88;;
59271;SDS011;45043;51.068;7.026;2022-08-19T14:39:38;8.52;;;6.78;;
59271;SDS011;45043;51.068;7.026;2022-08-19T14:42:42;5.70;;;5.20;;
59271;SDS011;45043;51.068;7.026;2022-08-19T14:45:43;7.05;;;5.60;;
59271;SDS011;45043;51.068;7.026;2022-08-19T14:48:43;6.15;;;5.50;;
59271;SDS011;45043;51.068;7.026;2022-08-19T14:51:44;8.90;;;5.20;;
59271;SDS011;45043;51.068;7.026;2022-08-19T14:54:46;6.20;;;4.73;;
59271;SDS011;45043;51.068;7.026;2022-08-19T14:57:47;5.00;;;4.60;;
59271;SDS011;45043;51.068;7.026;2022-08-19T15:00:47;5.97;;;4.93;;
59271;SDS011;45043;51.068;7.026;2022-08-19T15:03:48;5.30;;;4.63;;
59271;SDS011;45043;51.068;7.026;2022-08-19T15:06:49;6.90;;;4.97;;
59271;SDS011;45043;51.068;7.026;2022-08-19T15:09:51;7.25;;;4.85;;
59271;SDS011;45043;51.068;7.026;2022-08-19T15:12:51;8.35;;;4.95;;
59271;SDS011;45043;51.068;7.026;2022-08-19T15:15:53;5.07;;;4.68;;
59271;SDS011;45043;51.068;7.026;2022-08-19T15:18:55;4.72;;;4.32;;
59271;SDS011;45043;51.068;7.026;2022-08-19T15:21:57;4.43;;;4.00;;
59271;SDS011;45043;51.068;7.026;2022-08-19T15:24:58;5.20;;;4.20;;
59271;SDS011;45043;51.068;7.026;2022-08-19T15:27:59;5.03;;;4.25;;
59271;SDS011;45043;51.068;7.026;2022-08-19T15:31:00;5.90;;;4.22;;
59271;SDS011;45043;51.068;7.026;2022-08-19T15:34:01;5.53;;;4.03;;
59271;SDS011;45043;51.068;7.026;2022-08-19T15:37:03;6.90;;;4.20;;
59271;SDS011;45043;51.068;7.026;2022-08-19T15:40:07;4.97;;;4.50;;
59271;SDS011;45043;51.068;7.026;2022-08-19T15:43:08;4.63;;;4.20;;
59271;SDS011;45043;51.068;7.026;2022-08-19T15:46:09;5.35;;;3.92;;
59271;SDS011;45043;51.068;7.026;2022-08-19T15:49:12;5.20;;;4.25;;
59271;SDS011;45043;51.068;7.026;2022-08-19T15:52:14;3.92;;;3.53;;
59271;SDS011;45043;51.068;7.026;2022-08-19T15:55:16;5.45;;;4.10;;
59271;SDS011;45043;51.068;7.026;2022-08-19T15:58:17;3.92;;;3.58;;
59271;SDS011;45043;51.068;7.026;2022-08-19T16:01:36;9.23;;;3.60;;
59271;SDS011;45043;51.068;7.026;2022-08-19T16:04:55;4.20;;;3.57;;
59271;SDS011;45043;51.068;7.026;2022-08-19T16:08:14;4.00;;;3.20;;
59271;SDS011;45043;51.068;7.026;2022-08-19T16:11:18;4.50;;;3.70;;
59271;SDS011;45043;51.068;7.026;2022-08-19T16:14:20;4.20;;;3.80;;
59271;SDS011;45043;51.068;7.026;2022-08-19T16:17:20;4.80;;;3.60;;
59271;SDS011;45043;51.068;7.026;2022-08-19T16:20:21;5.53;;;3.77;;
59271;SDS011;45043;51.068;7.026;2022-08-19T16:23:21;7.67;;;5.30;;
59271;SDS011;45043;51.068;7.026;2022-08-19T16:26:22;4.73;;;3.57;;
59271;SDS011;45043;51.068;7.026;2022-08-19T16:29:29;6.23;;;3.80;;
59271;SDS011;45043;51.068;7.026;2022-08-19T16:32:30;4.73;;;3.83;;
59271;SDS011;45043;51.068;7.026;2022-08-19T16:35:31;5.27;;;3.90;;
59271;SDS011;45043;51.068;7.026;2022-08-19T16:38:32;4.07;;;3.67;;
59271;SDS011;45043;51.068;7.026;2022-08-19T16:41:32;4.13;;;3.67;;
59271;SDS011;45043;51.068;7.026;2022-08-19T16:44:34;4.30;;;3.70;;
59271;SDS011;45043;51.068;7.026;2022-08-19T16:47:35;4.80;;;3.70;;
59271;SDS011;45043;51.068;7.026;2022-08-19T16:50:36;5.17;;;3.97;;
59271;SDS011;45043;51.068;7.026;2022-08-19T16:53:37;7.33;;;4.03;;
59271;SDS011;45043;51.068;7.026;2022-08-19T16:56:39;5.80;;;4.20;;
59271;SDS011;45043;51.068;7.026;2022-08-19T16:59:40;4.80;;;3.80;;
59271;SDS011;45043;51.068;7.026;2022-08-19T17:02:40;4.80;;;3.97;;
59271;SDS011;45043;51.068;7.026;2022-08-19T17:05:41;4.43;;;3.97;;
59271;SDS011;45043;51.068;7.026;2022-08-19T17:08:43;5.33;;;4.07;;
59271;SDS011;45043;51.068;7.026;2022-08-19T17:11:43;4.70;;;4.30;;
59271;SDS011;45043;51.068;7.026;2022-08-19T17:14:44;3.97;;;3.57;;
59271;SDS011;45043;51.068;7.026;2022-08-19T17:17:45;3.97;;;3.57;;
59271;SDS011;45043;51.068;7.026;2022-08-19T17:20:45;3.67;;;3.37;;
59271;SDS011;45043;51.068;7.026;2022-08-19T17:23:46;4.20;;;3.80;;
59271;SDS011;45043;51.068;7.026;2022-08-19T17:26:47;5.33;;;3.43;;
59271;SDS011;45043;51.068;7.026;2022-08-19T17:29:47;3.90;;;3.60;;
59271;SDS011;45043;51.068;7.026;2022-08-19T17:32:48;3.87;;;3.47;;
59271;SDS011;45043;51.068;7.026;2022-08-19T17:35:49;3.80;;;3.50;;
59271;SDS011;45043;51.068;7.026;2022-08-19T17:38:50;4.27;;;3.33;;
59271;SDS011;45043;51.068;7.026;2022-08-19T17:41:54;4.20;;;3.57;;
59271;SDS011;45043;51.068;7.026;2022-08-19T17:44:54;6.60;;;4.10;;
59271;SDS011;45043;51.068;7.026;2022-08-19T17:47:58;3.87;;;3.50;;
59271;SDS011;45043;51.068;7.026;2022-08-19T17:51:00;6.90;;;4.33;;
59271;SDS011;45043;51.068;7.026;2022-08-19T17:54:16;4.20;;;3.80;;
59271;SDS011;45043;51.068;7.026;2022-08-19T17:57:18;5.87;;;3.70;;
59271;SDS011;45043;51.068;7.026;2022-08-19T18:00:18;4.77;;;4.00;;
59271;SDS011;45043;51.068;7.026;2022-08-19T18:03:20;4.20;;;3.80;;
59271;SDS011;45043;51.068;7.026;2022-08-19T18:06:21;5.80;;;3.97;;